createdAt,value
2023-05-09T00:00:25.008Z,41.23
2023-05-09T00:02:52.152Z,44.50
2023-05-09T00:05:19.353Z,44.50
2023-05-09T00:07:45.941Z,43.43
2023-05-09T00:10:12.618Z,40.93
2023-05-09T00:12:39.350Z,43.23
2023-05-09T00:15:10.006Z,45.53
2023-05-09T00:17:38.387Z,42.43
2023-05-09T00:20:09.246Z,54.03
2023-05-09T00:22:35.912Z,41.07
2023-05-09T00:25:02.670Z,40.70
2023-05-09T00:27:30.605Z,39.33
2023-05-09T00:29:57.281Z,43.40
2023-05-09T00:32:25.679Z,35.87
2023-05-09T00:34:52.351Z,36.87
2023-05-09T00:37:19.216Z,36.03
2023-05-09T00:39:46.113Z,38.73
2023-05-09T00:42:12.707Z,39.00
2023-05-09T00:44:39.333Z,37.83
2023-05-09T00:47:07.120Z,41.40
2023-05-09T00:49:34.263Z,38.13
2023-05-09T00:52:02.607Z,44.47
2023-05-09T00:54:29.345Z,42.73
2023-05-09T00:56:56.192Z,41.47
2023-05-09T00:59:22.808Z,39.77
2023-05-09T01:01:49.662Z,39.97
2023-05-09T01:04:16.952Z,44.40
2023-05-09T01:07:25.405Z,40.90
2023-05-09T01:10:12.058Z,40.30
2023-05-09T01:12:47.598Z,42.27
2023-05-09T01:15:21.592Z,40.87
2023-05-09T01:18:03.642Z,40.50
2023-05-09T01:20:38.623Z,38.17
2023-05-09T01:23:32.331Z,42.73
2023-05-09T01:26:13.980Z,37.63
2023-05-09T01:28:49.164Z,39.13
2023-05-09T01:31:16.840Z,41.70
2023-05-09T01:33:46.698Z,42.50
2023-05-09T01:36:17.249Z,50.50
2023-05-09T01:38:50.116Z,41.97
2023-05-09T01:41:17.913Z,40.03
2023-05-09T01:43:47.153Z,47.33
2023-05-09T01:46:15.994Z,45.53
2023-05-09T01:48:43.560Z,45.87
2023-05-09T01:51:13.611Z,43.07
2023-05-09T01:53:40.934Z,42.97
2023-05-09T01:56:09.251Z,46.07
2023-05-09T01:58:38.103Z,46.43
2023-05-09T02:01:05.922Z,44.80
2023-05-09T02:03:34.134Z,45.03
2023-05-09T02:06:03.194Z,42.57
2023-05-09T02:08:31.171Z,40.73
2023-05-09T02:10:58.420Z,40.57
2023-05-09T02:13:25.140Z,41.20
2023-05-09T02:15:52.233Z,42.67
2023-05-09T02:18:18.814Z,44.03
2023-05-09T02:20:45.782Z,41.07
2023-05-09T02:23:12.589Z,40.40
2023-05-09T02:25:40.596Z,44.77
2023-05-09T02:28:09.991Z,48.07
2023-05-09T02:30:41.930Z,48.77
2023-05-09T02:33:11.697Z,45.47
2023-05-09T02:35:41.747Z,47.93
2023-05-09T02:38:08.623Z,50.20
2023-05-09T02:40:36.195Z,46.70
2023-05-09T02:43:03.145Z,45.43
2023-05-09T02:45:30.014Z,42.07
2023-05-09T02:47:56.803Z,46.40
2023-05-09T02:50:23.664Z,40.50
2023-05-09T02:52:50.367Z,40.53
2023-05-09T02:55:17.241Z,44.47
2023-05-09T02:57:44.502Z,42.97
2023-05-09T03:00:12.099Z,40.97
2023-05-09T03:02:39.443Z,44.63
2023-05-09T03:05:06.498Z,44.13
2023-05-09T03:07:33.188Z,43.27
2023-05-09T03:09:59.797Z,46.30
2023-05-09T03:12:26.512Z,43.27
2023-05-09T03:14:53.122Z,50.13
2023-05-09T03:17:21.398Z,44.63
2023-05-09T03:19:48.572Z,44.03
2023-05-09T03:22:16.047Z,44.97
2023-05-09T03:24:42.658Z,47.20
2023-05-09T03:27:09.257Z,48.63
2023-05-09T03:29:35.900Z,44.17
2023-05-09T03:32:02.548Z,44.97
2023-05-09T03:34:29.155Z,47.13
2023-05-09T03:36:55.762Z,50.57
2023-05-09T03:39:22.400Z,48.70
2023-05-09T03:41:49.234Z,50.03
2023-05-09T03:44:15.950Z,50.53
2023-05-09T03:46:42.591Z,47.00
2023-05-09T03:49:09.262Z,51.13
2023-05-09T03:51:36.583Z,46.17
2023-05-09T03:54:03.437Z,44.83
2023-05-09T03:56:30.009Z,45.87
2023-05-09T03:58:56.613Z,51.37
2023-05-09T04:01:23.209Z,48.83
2023-05-09T04:03:50.366Z,52.00
2023-05-09T04:06:17.065Z,57.67
2023-05-09T04:08:43.800Z,54.23
2023-05-09T04:11:10.675Z,51.70
2023-05-09T04:13:37.310Z,53.40
2023-05-09T04:16:04.376Z,52.07
2023-05-09T04:18:31.287Z,48.57
2023-05-09T04:20:57.879Z,46.97
2023-05-09T04:23:24.741Z,49.87
2023-05-09T04:25:52.040Z,49.07
2023-05-09T04:28:18.616Z,46.87
2023-05-09T04:30:45.784Z,46.37
2023-05-09T04:33:13.107Z,42.83
2023-05-09T04:35:39.811Z,41.23
2023-05-09T04:38:06.455Z,45.00
2023-05-09T04:40:33.440Z,43.43
2023-05-09T04:43:00.023Z,46.27
2023-05-09T04:45:26.666Z,45.40
2023-05-09T04:47:53.339Z,45.80
2023-05-09T04:50:19.982Z,44.23
2023-05-09T04:52:46.638Z,43.40
2023-05-09T04:55:13.388Z,40.97
2023-05-09T04:57:40.232Z,38.97
2023-05-09T05:00:08.004Z,40.63
2023-05-09T05:02:34.704Z,38.70
2023-05-09T05:05:10.821Z,42.40
2023-05-09T05:07:38.576Z,38.57
2023-05-09T05:10:06.458Z,39.80
2023-05-09T05:12:33.158Z,37.53
2023-05-09T05:14:59.745Z,36.93
2023-05-09T05:17:29.293Z,41.33
2023-05-09T05:19:56.072Z,37.77
2023-05-09T05:22:23.148Z,43.08
2023-05-09T05:24:49.904Z,39.57
2023-05-09T05:27:16.534Z,37.33
2023-05-09T05:29:43.152Z,36.20
2023-05-09T05:32:10.597Z,37.23
2023-05-09T05:34:39.257Z,37.13
2023-05-09T05:37:05.897Z,35.40
2023-05-09T05:39:32.522Z,37.53
2023-05-09T05:41:59.220Z,33.60
2023-05-09T05:44:25.806Z,36.60
2023-05-09T05:46:52.372Z,37.10
2023-05-09T05:49:18.971Z,34.67
2023-05-09T05:51:45.617Z,33.47
2023-05-09T05:54:12.278Z,35.17
2023-05-09T05:56:38.849Z,31.33
2023-05-09T05:59:06.594Z,31.27
2023-05-09T06:01:33.238Z,33.17
2023-05-09T06:04:00.027Z,31.77
2023-05-09T06:06:29.738Z,32.87
2023-05-09T06:08:57.385Z,29.80
2023-05-09T06:11:24.138Z,28.50
2023-05-09T06:13:50.701Z,30.00
2023-05-09T06:16:19.917Z,30.13
2023-05-09T06:18:47.739Z,28.60
2023-05-09T06:21:14.373Z,28.73
2023-05-09T06:23:51.063Z,27.33
2023-05-09T06:26:28.411Z,27.87
2023-05-09T06:28:55.972Z,27.03
2023-05-09T06:31:24.897Z,26.83
2023-05-09T06:33:52.832Z,26.63
2023-05-09T06:36:19.902Z,29.27
2023-05-09T06:38:46.991Z,27.17
2023-05-09T06:41:14.091Z,28.47
2023-05-09T06:43:41.107Z,28.43
2023-05-09T06:46:08.218Z,27.43
2023-05-09T06:48:35.312Z,28.17
2023-05-09T06:51:02.486Z,26.60
2023-05-09T06:53:29.501Z,26.50
2023-05-09T06:55:56.188Z,29.33
2023-05-09T06:58:23.473Z,26.03
2023-05-09T07:00:51.263Z,26.13
2023-05-09T07:03:17.883Z,26.27
2023-05-09T07:05:44.490Z,27.33
2023-05-09T07:08:11.180Z,23.70
2023-05-09T07:10:38.744Z,26.10
2023-05-09T07:13:06.078Z,24.67
2023-05-09T07:15:41.492Z,24.30
2023-05-09T07:18:09.556Z,22.63
2023-05-09T07:20:36.517Z,21.97
2023-05-09T07:23:04.232Z,22.30
2023-05-09T07:25:31.301Z,23.27
2023-05-09T07:27:58.412Z,21.97
2023-05-09T07:30:25.664Z,20.70
2023-05-09T07:32:53.333Z,21.83
2023-05-09T07:35:21.447Z,22.83
2023-05-09T07:37:48.536Z,22.83
2023-05-09T07:40:16.540Z,23.47
2023-05-09T07:42:49.647Z,22.33
2023-05-09T07:45:18.712Z,22.07
2023-05-09T07:47:46.550Z,21.47
2023-05-09T07:50:13.584Z,22.38
2023-05-09T07:52:40.582Z,21.03
2023-05-09T07:55:07.712Z,19.83
2023-05-09T07:57:34.733Z,19.90
2023-05-09T08:00:01.858Z,19.13
2023-05-09T08:02:28.986Z,20.47
2023-05-09T08:04:56.086Z,20.47
2023-05-09T08:07:23.115Z,19.90
2023-05-09T08:09:50.132Z,18.63
2023-05-09T08:12:17.168Z,19.37
2023-05-09T08:14:44.180Z,19.23
2023-05-09T08:17:11.201Z,19.23
2023-05-09T08:19:38.236Z,19.33
2023-05-09T08:22:05.518Z,16.67
2023-05-09T08:24:32.858Z,18.83
2023-05-09T08:27:00.550Z,15.87
2023-05-09T08:29:28.916Z,14.50
2023-05-09T08:31:56.090Z,15.03
2023-05-09T08:34:23.184Z,13.87
2023-05-09T08:36:50.363Z,14.43
2023-05-09T08:39:17.843Z,16.57
2023-05-09T08:41:45.157Z,17.40
2023-05-09T08:44:12.255Z,18.43
2023-05-09T08:46:43.996Z,17.73
2023-05-09T08:49:11.286Z,18.17
2023-05-09T08:51:38.203Z,16.77
2023-05-09T08:54:05.605Z,13.93
2023-05-09T08:56:32.358Z,13.90
2023-05-09T08:58:59.059Z,15.87
2023-05-09T09:01:26.853Z,15.47
2023-05-09T09:03:54.069Z,12.50
2023-05-09T09:06:23.223Z,14.10
2023-05-09T09:08:50.870Z,13.63
2023-05-09T09:11:17.616Z,15.23
2023-05-09T09:13:45.884Z,14.73
2023-05-09T09:16:20.463Z,14.30
2023-05-09T09:18:47.860Z,13.10
2023-05-09T09:21:17.002Z,14.83
2023-05-09T09:23:44.253Z,11.33
2023-05-09T09:26:10.901Z,11.80
2023-05-09T09:28:37.458Z,11.50
2023-05-09T09:31:19.776Z,11.53
2023-05-09T09:33:46.657Z,11.73
2023-05-09T09:36:13.210Z,11.87
2023-05-09T09:38:42.643Z,12.10
2023-05-09T09:41:11.321Z,12.73
2023-05-09T09:43:37.947Z,12.97
2023-05-09T09:46:05.441Z,14.53
2023-05-09T09:48:34.135Z,12.67
2023-05-09T09:51:11.443Z,13.97
2023-05-09T09:53:42.416Z,12.53
2023-05-09T09:56:09.326Z,13.43
2023-05-09T09:58:36.367Z,11.33
2023-05-09T10:01:16.845Z,10.70
2023-05-09T10:03:48.091Z,10.65
2023-05-09T10:06:16.402Z,11.30
2023-05-09T10:08:47.167Z,11.37
2023-05-09T10:11:14.574Z,12.90
2023-05-09T10:13:42.433Z,10.33
2023-05-09T10:16:10.083Z,9.10
2023-05-09T10:18:39.144Z,8.67
2023-05-09T10:21:08.010Z,10.27
2023-05-09T10:23:37.980Z,10.48
2023-05-09T10:26:12.788Z,11.65
2023-05-09T10:28:41.859Z,10.27
2023-05-09T10:31:28.456Z,11.07
2023-05-09T10:33:58.661Z,9.73
2023-05-09T10:36:25.360Z,9.50
2023-05-09T10:38:54.894Z,9.45
2023-05-09T10:41:22.207Z,10.27
2023-05-09T10:43:48.962Z,11.00
2023-05-09T10:46:16.456Z,10.70
2023-05-09T10:48:43.921Z,11.20
2023-05-09T10:51:11.957Z,9.77
2023-05-09T10:53:49.730Z,9.40
2023-05-09T10:56:33.046Z,9.40
2023-05-09T10:59:00.415Z,11.07
2023-05-09T11:01:34.487Z,10.43
2023-05-09T11:04:02.476Z,10.73
2023-05-09T11:06:50.732Z,9.83
2023-05-09T11:09:38.813Z,9.57
2023-05-09T11:12:05.414Z,9.87
2023-05-09T11:14:39.205Z,11.03
2023-05-09T11:17:06.672Z,9.65
2023-05-09T11:19:45.350Z,10.50
2023-05-09T11:22:17.823Z,11.10
2023-05-09T11:24:46.336Z,11.30
2023-05-09T11:27:21.135Z,13.23
2023-05-09T11:30:04.462Z,11.63
2023-05-09T11:32:33.174Z,11.07
2023-05-09T11:35:27.305Z,10.53
2023-05-09T11:38:00.270Z,10.57
2023-05-09T11:40:28.325Z,9.82
2023-05-09T11:42:58.666Z,9.27
2023-05-09T11:45:28.047Z,8.93
2023-05-09T11:47:55.164Z,11.50
2023-05-09T11:50:21.965Z,10.52
2023-05-09T11:52:49.318Z,10.32
2023-05-09T11:55:18.420Z,9.18
2023-05-09T11:57:47.638Z,6.18
2023-05-09T12:00:16.323Z,3.80
2023-05-09T12:02:44.302Z,3.75
2023-05-09T12:05:12.276Z,4.82
2023-05-09T12:07:39.637Z,4.45
2023-05-09T12:10:10.424Z,4.15
2023-05-09T12:12:42.302Z,4.28
2023-05-09T12:15:09.880Z,4.13
2023-05-09T12:17:37.228Z,3.78
2023-05-09T12:20:07.638Z,3.85
2023-05-09T12:22:34.941Z,6.43
2023-05-09T12:25:02.663Z,3.42
2023-05-09T12:27:32.027Z,3.35
2023-05-09T12:29:59.209Z,3.53
2023-05-09T12:32:31.626Z,3.13
2023-05-09T12:34:59.393Z,2.63
2023-05-09T12:37:26.480Z,2.50
2023-05-09T12:40:15.555Z,2.58
2023-05-09T12:42:46.123Z,3.30
2023-05-09T12:45:13.903Z,2.90
2023-05-09T12:47:45.453Z,3.35
2023-05-09T12:50:13.205Z,3.33
2023-05-09T12:52:50.742Z,2.95
2023-05-09T12:55:28.682Z,4.60
2023-05-09T12:58:03.241Z,4.80
2023-05-09T13:00:41.706Z,4.10
2023-05-09T13:03:20.429Z,3.75
2023-05-09T13:05:55.023Z,3.97
2023-05-09T13:08:22.251Z,3.08
2023-05-09T13:10:49.277Z,2.45
2023-05-09T13:13:20.158Z,2.70
2023-05-09T13:15:47.428Z,2.30
2023-05-09T13:18:14.608Z,5.10
2023-05-09T13:20:41.755Z,2.20
2023-05-09T13:23:08.785Z,3.88
2023-05-09T13:25:36.047Z,2.00
2023-05-09T13:28:04.723Z,2.33
2023-05-09T13:30:32.933Z,2.30
2023-05-09T13:33:06.285Z,2.20
2023-05-09T13:35:40.280Z,3.63
2023-05-09T13:38:07.350Z,3.42
2023-05-09T13:40:35.183Z,2.13
2023-05-09T13:43:02.175Z,3.38
2023-05-09T13:45:29.181Z,2.65
2023-05-09T13:47:56.399Z,3.03
2023-05-09T13:50:23.461Z,2.70
2023-05-09T13:52:50.451Z,3.63
2023-05-09T13:55:17.848Z,3.30
2023-05-09T13:57:44.836Z,2.80
2023-05-09T14:00:14.383Z,2.75
2023-05-09T14:02:42.728Z,3.30
2023-05-09T14:05:10.014Z,2.95
2023-05-09T14:07:37.140Z,2.65
2023-05-09T14:12:34.862Z,2.47
2023-05-09T14:15:02.124Z,4.03
2023-05-09T14:17:28.721Z,3.10
2023-05-09T14:19:55.356Z,2.72
2023-05-09T14:22:21.976Z,4.35
2023-05-09T14:24:48.656Z,2.90
2023-05-09T14:27:15.314Z,3.83
2023-05-09T14:29:43.149Z,2.50
2023-05-09T14:32:12.810Z,3.23
2023-05-09T14:34:39.557Z,4.33
2023-05-09T14:37:13.493Z,2.50
2023-05-09T14:39:42.034Z,2.60
2023-05-09T14:42:11.275Z,2.70
2023-05-09T14:44:38.727Z,2.40
2023-05-09T14:47:05.851Z,2.70
2023-05-09T14:49:33.016Z,2.70
2023-05-09T14:51:59.958Z,4.15
2023-05-09T14:54:26.677Z,2.67
2023-05-09T14:56:53.356Z,3.47
2023-05-09T14:59:20.058Z,3.07
2023-05-09T15:01:46.954Z,3.47
2023-05-09T15:04:13.723Z,3.22
2023-05-09T15:06:40.941Z,2.37
2023-05-09T15:09:07.799Z,2.20
2023-05-09T15:11:46.875Z,5.40
2023-05-09T15:14:14.872Z,1.80
2023-05-09T15:16:41.739Z,2.40
2023-05-09T15:19:08.765Z,2.10
2023-05-09T15:21:35.673Z,2.30
2023-05-09T15:24:02.520Z,1.98
2023-05-09T15:26:29.930Z,1.80
2023-05-09T15:28:56.580Z,2.58
2023-05-09T15:31:24.800Z,2.03
2023-05-09T15:33:51.761Z,2.30
2023-05-09T15:36:18.398Z,3.25
2023-05-09T15:38:48.353Z,2.50
2023-05-09T15:41:15.727Z,2.30
2023-05-09T15:43:42.393Z,3.20
2023-05-09T15:46:09.239Z,2.67
2023-05-09T15:48:36.202Z,1.95
2023-05-09T15:51:03.920Z,2.17
2023-05-09T15:53:30.602Z,2.20
2023-05-09T15:55:57.171Z,2.20
2023-05-09T15:58:23.789Z,3.97
2023-05-09T16:00:50.846Z,2.30
2023-05-09T16:03:18.582Z,2.30
2023-05-09T16:05:45.391Z,1.93
2023-05-09T16:08:12.447Z,2.60
2023-05-09T16:10:39.080Z,2.47
2023-05-09T16:13:05.790Z,3.87
2023-05-09T16:15:32.593Z,3.57
2023-05-09T16:17:59.215Z,2.33
2023-05-09T16:20:25.877Z,4.90
2023-05-09T16:22:52.428Z,6.33
2023-05-09T16:25:19.085Z,4.53
2023-05-09T16:27:45.681Z,2.80
2023-05-09T16:30:13.018Z,2.30
2023-05-09T16:32:39.866Z,4.67
2023-05-09T16:35:07.588Z,2.40
2023-05-09T16:37:35.666Z,3.97
2023-05-09T16:40:02.954Z,3.90
2023-05-09T16:42:29.871Z,4.57
2023-05-09T16:44:57.764Z,2.80
2023-05-09T16:47:24.434Z,3.60
2023-05-09T16:49:51.009Z,2.23
2023-05-09T16:52:17.620Z,2.60
2023-05-09T16:54:44.201Z,2.20
2023-05-09T16:57:10.814Z,4.10
2023-05-09T16:59:37.537Z,2.27
2023-05-09T17:02:04.455Z,2.30
2023-05-09T17:04:31.226Z,3.40
2023-05-09T17:06:57.921Z,3.17
2023-05-09T17:09:24.645Z,2.30
2023-05-09T17:11:51.221Z,4.15
2023-05-09T17:14:17.903Z,2.80
2023-05-09T17:16:44.649Z,2.50
2023-05-09T17:19:11.314Z,2.93
2023-05-09T17:21:41.273Z,3.10
2023-05-09T17:24:09.437Z,4.33
2023-05-09T17:26:36.128Z,2.93
2023-05-09T17:29:03.685Z,2.07
2023-05-09T17:31:31.216Z,1.60
2023-05-09T17:33:57.992Z,2.60
2023-05-09T17:36:25.640Z,2.03
2023-05-09T17:38:52.616Z,3.77
2023-05-09T17:41:19.341Z,4.23
2023-05-09T17:43:46.128Z,2.63
2023-05-09T17:46:14.749Z,6.13
2023-05-09T17:48:41.977Z,2.57
2023-05-09T17:51:08.609Z,4.33
2023-05-09T17:53:35.313Z,3.53
2023-05-09T17:56:01.988Z,6.03
2023-05-09T17:58:28.854Z,3.03
2023-05-09T18:00:55.878Z,3.67
2023-05-09T18:03:22.556Z,2.83
2023-05-09T18:05:49.369Z,4.10
2023-05-09T18:08:16.717Z,2.77
2023-05-09T18:10:43.784Z,2.70
2023-05-09T18:13:10.849Z,2.60
2023-05-09T18:15:38.463Z,2.87
2023-05-09T18:18:06.218Z,2.40
2023-05-09T18:20:33.130Z,3.30
2023-05-09T18:23:01.538Z,3.87
2023-05-09T18:25:28.547Z,2.57
2023-05-09T18:27:56.438Z,5.50
2023-05-09T18:30:23.093Z,4.53
2023-05-09T18:32:49.724Z,2.23
2023-05-09T18:35:16.409Z,3.13
2023-05-09T18:37:43.082Z,2.33
2023-05-09T18:40:14.733Z,6.13
2023-05-09T18:42:44.406Z,2.60
2023-05-09T18:45:11.502Z,3.60
2023-05-09T18:47:38.290Z,2.50
2023-05-09T18:50:06.937Z,2.67
2023-05-09T18:52:34.291Z,2.70
2023-05-09T18:55:00.896Z,2.93
2023-05-09T18:57:28.202Z,4.80
2023-05-09T18:59:55.848Z,5.30
2023-05-09T19:02:23.496Z,6.87
2023-05-09T19:04:51.416Z,8.17
2023-05-09T19:07:18.149Z,6.73
2023-05-09T19:09:44.816Z,4.00
2023-05-09T19:12:11.400Z,3.73
2023-05-09T19:14:37.979Z,3.23
2023-05-09T19:17:05.581Z,3.60
2023-05-09T19:19:32.600Z,5.80
2023-05-09T19:22:01.386Z,4.23
2023-05-09T19:24:28.288Z,4.60
2023-05-09T19:26:54.931Z,4.67
2023-05-09T19:29:21.512Z,4.33
2023-05-09T19:31:48.104Z,4.18
2023-05-09T19:34:14.699Z,3.40
2023-05-09T19:36:41.323Z,3.57
2023-05-09T19:39:09.190Z,3.60
2023-05-09T19:41:35.922Z,3.97
2023-05-09T19:44:02.565Z,3.40
2023-05-09T19:46:29.541Z,3.00
2023-05-09T19:48:56.218Z,3.20
2023-05-09T19:51:22.887Z,4.67
2023-05-09T19:53:49.488Z,3.60
2023-05-09T19:56:16.170Z,4.10
2023-05-09T19:58:43.247Z,3.77
2023-05-09T20:01:10.019Z,4.80
2023-05-09T20:03:37.118Z,4.13
2023-05-09T20:06:04.130Z,4.17
2023-05-09T20:08:31.180Z,3.70
2023-05-09T20:10:59.536Z,4.30
2023-05-09T20:13:27.013Z,3.63
2023-05-09T20:15:53.873Z,3.83
2023-05-09T20:18:20.609Z,5.20
2023-05-09T20:20:47.285Z,10.33
2023-05-09T20:23:14.171Z,4.50
2023-05-09T20:25:40.784Z,5.37
2023-05-09T20:28:07.510Z,5.33
2023-05-09T20:30:35.355Z,5.43
2023-05-09T20:33:01.962Z,4.80
2023-05-09T20:35:28.583Z,5.10
2023-05-09T20:37:55.299Z,6.33
2023-05-09T20:40:21.942Z,5.20
2023-05-09T20:42:48.545Z,4.40
2023-05-09T20:45:15.185Z,5.77
2023-05-09T20:47:41.890Z,4.50
2023-05-09T20:50:08.905Z,5.77
2023-05-09T20:52:35.660Z,5.03
2023-05-09T20:55:02.342Z,5.07
2023-05-09T20:57:28.998Z,4.83
2023-05-09T20:59:55.707Z,5.20
2023-05-09T21:02:22.419Z,5.23
2023-05-09T21:04:49.158Z,4.10
2023-05-09T21:07:19.081Z,4.40
2023-05-09T21:09:49.683Z,4.27
2023-05-09T21:12:17.116Z,4.97
2023-05-09T21:14:44.780Z,3.60
2023-05-09T21:17:12.061Z,6.13
2023-05-09T21:19:38.722Z,3.43
2023-05-09T21:22:05.429Z,4.60
2023-05-09T21:24:32.165Z,7.00
2023-05-09T21:26:58.763Z,4.30
2023-05-09T21:29:25.467Z,3.97
2023-05-09T21:31:52.135Z,4.33
2023-05-09T21:34:19.086Z,4.57
2023-05-09T21:36:45.674Z,4.73
2023-05-09T21:39:12.312Z,3.77
2023-05-09T21:41:40.004Z,3.73
2023-05-09T21:44:11.176Z,3.93
2023-05-09T21:46:38.060Z,4.80
2023-05-09T21:49:04.799Z,10.60
2023-05-09T21:51:31.556Z,3.23
2023-05-09T21:53:58.263Z,3.97
2023-05-09T21:56:24.909Z,5.07
2023-05-09T21:58:51.465Z,2.67
2023-05-09T22:01:19.216Z,4.90
2023-05-09T22:03:46.371Z,4.80
2023-05-09T22:06:13.540Z,5.87
2023-05-09T22:08:40.243Z,5.83
2023-05-09T22:11:07.715Z,2.93
2023-05-09T22:13:36.301Z,3.80
2023-05-09T22:16:03.788Z,3.67
2023-05-09T22:18:31.305Z,4.30
2023-05-09T22:20:57.971Z,4.33
2023-05-09T22:23:24.847Z,4.00
2023-05-09T22:25:51.443Z,3.20
2023-05-09T22:28:18.117Z,4.47
2023-05-09T22:30:44.774Z,3.43
2023-05-09T22:33:11.703Z,3.50
2023-05-09T22:35:38.669Z,3.23
2023-05-09T22:38:05.503Z,2.50
2023-05-09T22:40:32.259Z,2.50
2023-05-09T22:42:58.948Z,2.73
2023-05-09T22:45:25.814Z,3.07
2023-05-09T22:47:52.581Z,4.70
2023-05-09T22:50:19.502Z,4.10
2023-05-09T22:52:46.140Z,3.77
2023-05-09T22:55:12.754Z,2.17
2023-05-09T22:57:40.220Z,3.03
2023-05-09T23:00:07.633Z,3.13
2023-05-09T23:02:34.277Z,2.33
2023-05-09T23:05:00.858Z,3.27
2023-05-09T23:07:27.479Z,2.50
2023-05-09T23:09:54.118Z,3.00
2023-05-09T23:12:20.735Z,11.10
2023-05-09T23:14:47.398Z,2.93
2023-05-09T23:17:13.981Z,3.57
2023-05-09T23:19:40.618Z,3.27
2023-05-09T23:22:07.195Z,4.07
2023-05-09T23:24:33.889Z,3.63
2023-05-09T23:27:02.476Z,2.30
2023-05-09T23:29:29.344Z,3.63
2023-05-09T23:31:56.404Z,2.97
2023-05-09T23:34:23.032Z,2.50
2023-05-09T23:36:49.632Z,3.10
2023-05-09T23:39:16.571Z,2.20
2023-05-09T23:41:43.347Z,2.10
2023-05-09T23:44:11.269Z,2.20
2023-05-09T23:46:37.892Z,2.43
2023-05-09T23:49:04.630Z,2.70
2023-05-09T23:51:31.814Z,4.97
2023-05-09T23:53:58.533Z,1.60
2023-05-09T23:56:25.280Z,1.87
2023-05-09T23:58:51.915Z,3.03
